Observation data for Andrews on 11/21/2020      Previous  Date       Current Mesonet Observations  Soil Data  Daily Summary Page  Observations in Plain Language
KANS 210600Z 17001KT 12/04 A3029 RMK A01 T01180035  RH  058%=      5-min Rain = 0
KANS 210605Z 18001KT 12/04 A3029 RMK A01 T01190037  RH  058%=      5-min Rain = 0
KANS 210610Z 18000KT 12/04 A3029 RMK A01 T01210040  RH  059%=      5-min Rain = 0
KANS 210615Z 19000KT 12/04 A3029 RMK A01 T01200036  RH  057%=      5-min Rain = 0
KANS 210620Z 32000KT 11/04 A3028 RMK A01 T01120036  RH  060%=      5-min Rain = 0
KANS 210625Z 32001KT 11/04 A3028 RMK A01 T01080040  RH  064%=      5-min Rain = 0
KANS 210630Z 30001KT 11/04 A3028 RMK A01 T01090041  RH  064%=      5-min Rain = 0
KANS 210635Z 28000KT 11/04 A3028 RMK A01 T01100041  RH  064%=      5-min Rain = 0
KANS 210640Z 00000KT 11/04 A3028 RMK A01 T01120041  RH  063%=      5-min Rain = 0
KANS 210645Z 00000KT 11/04 A3028 RMK A01 T01120041  RH  063%=      5-min Rain = 0
KANS 210650Z 17000KT 11/04 A3028 RMK A01 T01110040  RH  063%=      5-min Rain = 0
KANS 210655Z 16001KT 11/04 A3028 RMK A01 T01090038  RH  063%=      5-min Rain = 0
KANS 210700Z 13001KT 11/04 A3028 RMK A01 T01080040  RH  064%=      5-min Rain = 0
KANS 210705Z 09001KT 11/04 A3028 RMK A01 T01100039  RH  063%=      5-min Rain = 0
KANS 210710Z 08001KT 11/03 A3028 RMK A01 T01080034  RH  061%=      5-min Rain = 0
KANS 210715Z 12002KT 11/03 A3028 RMK A01 T01050033  RH  062%=      5-min Rain = 0
KANS 210720Z 14002KT 10/03 A3028 RMK A01 T01040034  RH  063%=      5-min Rain = 0
KANS 210725Z 14002KT 11/04 A3028 RMK A01 T01050039  RH  065%=      5-min Rain = 0
KANS 210730Z 14002KT 11/04 A3028 RMK A01 T01070039  RH  064%=      5-min Rain = 0
KANS 210735Z 14001KT 10/03 A3028 RMK A01 T01020030  RH  062%=      5-min Rain = 0
KANS 210740Z 06000KT 10/03 A3028 RMK A01 T00980027  RH  062%=      5-min Rain = 0
KANS 210745Z 08000KT 10/03 A3028 RMK A01 T00950026  RH  063%=      5-min Rain = 0
KANS 210750Z 13002KT 10/03 A3027 RMK A01 T00950026  RH  063%=      5-min Rain = 0
KANS 210755Z 14002KT 09/03 A3027 RMK A01 T00940028  RH  064%=      5-min Rain = 0
KANS 210800Z 15001KT 10/04 A3027 RMK A01 T00960035  RH  067%=      5-min Rain = 0
KANS 210805Z 04000KT 10/04 A3027 RMK A01 T01010041  RH  068%=      5-min Rain = 0
KANS 210810Z 03001KT 10/03 A3027 RMK A01 T00950027  RH  064%=      5-min Rain = 0
KANS 210815Z 10001KT 09/03 A3027 RMK A01 T00920026  RH  064%=      5-min Rain = 0
KANS 210820Z 12001KT 09/03 A3027 RMK A01 T00910025  RH  064%=      5-min Rain = 0
KANS 210825Z 07001KT 09/03 A3027 RMK A01 T00920031  RH  067%=      5-min Rain = 0
KANS 210830Z 03002KT 09/03 A3027 RMK A01 T00910028  RH  066%=      5-min Rain = 0
KANS 210835Z 02004KT 09/03 A3026 RMK A01 T00860029  RH  069%=      5-min Rain = 0
KANS 210840Z 36005KT 09/03 A3026 RMK A01 T00850032  RH  071%=      5-min Rain = 0
KANS 210845Z 34004KT 08/03 A3026 RMK A01 T00830033  RH  072%=      5-min Rain = 0
KANS 210850Z 35003KT 08/03 A3026 RMK A01 T00820032  RH  072%=      5-min Rain = 0
KANS 210855Z 36003KT 08/03 A3026 RMK A01 T00820032  RH  072%=      5-min Rain = 0
KANS 210900Z 34005KT 08/03 A3026 RMK A01 T00800028  RH  071%=      5-min Rain = 0
KANS 210905Z 00005KT 08/02 A3026 RMK A01 T00770024  RH  071%=      5-min Rain = 0
KANS 210910Z 01005KT 07/02 A3026 RMK A01 T00740024  RH  071%=      5-min Rain = 0
KANS 210915Z 35006KT 07/02 A3026 RMK A01 T00730023  RH  072%=      5-min Rain = 0
KANS 210920Z 35006KT 07/03 A3026 RMK A01 T00730025  RH  073%=      5-min Rain = 0
KANS 210925Z 36006KT 08/03 A3026 RMK A01 T00750029  RH  074%=      5-min Rain = 0
KANS 210930Z 00006KT 08/03 A3026 RMK A01 T00760031  RH  074%=      5-min Rain = 0
KANS 210935Z 00006KT 08/03 A3026 RMK A01 T00750031  RH  075%=      5-min Rain = 0
KANS 210940Z 01006KT 08/03 A3026 RMK A01 T00750033  RH  076%=      5-min Rain = 0
KANS 210945Z 00006KT 08/04 A3026 RMK A01 T00770038  RH  078%=      5-min Rain = 0
KANS 210950Z 36006KT 08/04 A3027 RMK A01 T00780039  RH  078%=      5-min Rain = 0
KANS 210955Z 36006KT 08/04 A3027 RMK A01 T00780040  RH  078%=      5-min Rain = 0
KANS 211000Z 36007KT 08/04 A3027 RMK A01 T00760039  RH  079%=      5-min Rain = 0
KANS 211005Z 00007KT 08/04 A3027 RMK A01 T00750040  RH  080%=      5-min Rain = 0
KANS 211010Z 01007KT 08/04 A3027 RMK A01 T00770043  RH  081%=      5-min Rain = 0
KANS 211015Z 01006KT 08/05 A3027 RMK A01 T00790046  RH  081%=      5-min Rain = 0
KANS 211020Z 02006KT 08/05 A3027 RMK A01 T00790047  RH  082%=      5-min Rain = 0
KANS 211025Z 03006KT 08/05 A3027 RMK A01 T00790047  RH  082%=      5-min Rain = 0
KANS 211030Z 03004KT 08/05 A3027 RMK A01 T00770046  RH  082%=      5-min Rain = 0
KANS 211035Z 02005KT 08/05 A3027 RMK A01 T00770047  RH  083%=      5-min Rain = 0
KANS 211040Z 03005KT 08/05 A3027 RMK A01 T00760047  RH  084%=      5-min Rain = 0
KANS 211045Z 03005KT 08/05 A3027 RMK A01 T00760050  RH  085%=      5-min Rain = 0
KANS 211050Z 03006KT 08/05 A3027 RMK A01 T00790053  RH  086%=      5-min Rain = 0
KANS 211055Z 03005KT 08/05 A3027 RMK A01 T00800054  RH  086%=      5-min Rain = 0
KANS 211100Z 04005KT 08/05 A3027 RMK A01 T00800054  RH  086%=      5-min Rain = 0
KANS 211105Z 04006KT 08/05 A3027 RMK A01 T00800054  RH  086%=      5-min Rain = 0
KANS 211110Z 04006KT 08/06 A3027 RMK A01 T00790055  RH  086%=      5-min Rain = 0
KANS 211115Z 04005KT 08/06 A3027 RMK A01 T00790055  RH  087%=      5-min Rain = 0
KANS 211120Z 04005KT 08/06 A3027 RMK A01 T00780056  RH  087%=      5-min Rain = 0
KANS 211125Z 03005KT 08/06 A3028 RMK A01 T00770055  RH  088%=      5-min Rain = 0
KANS 211130Z 04005KT 08/05 A3028 RMK A01 T00760054  RH  088%=      5-min Rain = 0
KANS 211135Z 04005KT 08/06 A3028 RMK A01 T00760055  RH  089%=      5-min Rain = 0
KANS 211140Z 04005KT 08/06 A3028 RMK A01 T00760056  RH  089%=      5-min Rain = 0
KANS 211145Z 05005KT 08/06 A3028 RMK A01 T00760056  RH  089%=      5-min Rain = 0
KANS 211150Z 05005KT 08/06 A3028 RMK A01 T00760057  RH  090%=      5-min Rain = 0
KANS 211155Z 05005KT 08/06 A3028 RMK A01 T00770058  RH  090%=      5-min Rain = 0
KANS 211200Z 06005KT 08/06 A3027 RMK A01 T00770058  RH  090%=      5-min Rain = 0
KANS 211205Z 07005KT 08/06 A3027 RMK A01 T00770060  RH  091%=      5-min Rain = 0
KANS 211210Z 07005KT 08/06 A3027 RMK A01 T00780060  RH  091%=      5-min Rain = 0
KANS 211215Z 07005KT 08/06 A3028 RMK A01 T00790061  RH  091%=      5-min Rain = 0
KANS 211220Z 06005KT 08/06 A3028 RMK A01 T00790062  RH  091%=      5-min Rain = 0
KANS 211225Z 07005KT 08/06 A3028 RMK A01 T00790062  RH  091%=      5-min Rain = 0
KANS 211230Z 07004KT 08/06 A3028 RMK A01 T00790061  RH  091%=      5-min Rain = 0
KANS 211235Z 07005KT 08/06 A3028 RMK A01 T00770060  RH  091%=      5-min Rain = 0
KANS 211240Z 07005KT 08/06 A3028 RMK A01 T00760059  RH  091%=      5-min Rain = 0
KANS 211245Z 07004KT 08/06 A3028 RMK A01 T00750058  RH  091%=      5-min Rain = 0
KANS 211250Z 07004KT 08/06 A3028 RMK A01 T00760059  RH  091%=      5-min Rain = 0
KANS 211255Z 07005KT 08/06 A3029 RMK A01 T00750058  RH  091%=      5-min Rain = 0
KANS 211300Z 08005KT 08/06 A3029 RMK A01 T00750058  RH  091%=      5-min Rain = 0
KANS 211305Z 09005KT 08/06 A3029 RMK A01 T00760059  RH  092%=      5-min Rain = 0
KANS 211310Z 08005KT 08/06 A3029 RMK A01 T00770060  RH  092%=      5-min Rain = 0
KANS 211315Z 08004KT 08/06 A3029 RMK A01 T00770060  RH  091%=      5-min Rain = 0
KANS 211320Z 08005KT 08/06 A3029 RMK A01 T00760059  RH  091%=      5-min Rain = 0
KANS 211325Z 08005KT 08/06 A3028 RMK A01 T00760060  RH  091%=      5-min Rain = 0
KANS 211330Z 08004KT 08/06 A3029 RMK A01 T00770060  RH  091%=      5-min Rain = 0
KANS 211335Z 07004KT 08/06 A3029 RMK A01 T00780061  RH  091%=      5-min Rain = 0
KANS 211340Z 06003KT 08/06 A3029 RMK A01 T00790062  RH  091%=      5-min Rain = 0
KANS 211345Z 04003KT 08/06 A303 RMK A01 T00760055  RH  089%=      5-min Rain = 0
KANS 211350Z 06004KT 07/06 A303 RMK A01 T00740055  RH  090%=      5-min Rain = 0
KANS 211355Z 06004KT 08/06 A303 RMK A01 T00760057  RH  090%=      5-min Rain = 0
KANS 211400Z 05003KT 08/06 A303 RMK A01 T00790059  RH  089%=      5-min Rain = 0
KANS 211405Z 05003KT 08/06 A303 RMK A01 T00820059  RH  088%=      5-min Rain = 0
KANS 211410Z 05003KT 09/06 A3031 RMK A01 T00850061  RH  087%=      5-min Rain = 0
KANS 211415Z 05003KT 09/06 A3031 RMK A01 T00890063  RH  086%=      5-min Rain = 0
KANS 211420Z 06004KT 09/06 A3031 RMK A01 T00940064  RH  084%=      5-min Rain = 0
KANS 211425Z 05005KT 10/07 A3031 RMK A01 T00980065  RH  082%=      5-min Rain = 0
KANS 211430Z 06006KT 10/07 A3031 RMK A01 T01030066  RH  080%=      5-min Rain = 0
KANS 211435Z 06006KT 11/07 A3031 RMK A01 T01070067  RH  078%=      5-min Rain = 0
KANS 211440Z 06006KT 11/07 A3032 RMK A01 T01100067  RH  077%=      5-min Rain = 0
KANS 211445Z 06007KT 11/07 A3032 RMK A01 T01130068  RH  075%=      5-min Rain = 0
KANS 211450Z 06006KT 12/07 A3033 RMK A01 T01180069  RH  074%=      5-min Rain = 0
KANS 211455Z 06006KT 12/07 A3033 RMK A01 T01210069  RH  072%=      5-min Rain = 0
KANS 211500Z 06006KT 12/07 A3033 RMK A01 T01230070  RH  072%=      5-min Rain = 0
KANS 211505Z 08008KT 13/07 A3032 RMK A01 T01270071  RH  070%=      5-min Rain = 0
KANS 211510Z 08008KT 13/07 A3032 RMK A01 T01290071  RH  070%=      5-min Rain = 0
KANS 211515Z 08009KT 13/07 A3032 RMK A01 T01300072  RH  070%=      5-min Rain = 0
KANS 211520Z 09008KT 13/07 A3032 RMK A01 T01330074  RH  069%=      5-min Rain = 0
KANS 211525Z 09008KT 13/08 A3032 RMK A01 T01330075  RH  070%=      5-min Rain = 0
KANS 211530Z 10007KT 14/08 A3032 RMK A01 T01370077  RH  069%=      5-min Rain = 0
KANS 211535Z 10007KT 14/08 A3033 RMK A01 T01400079  RH  068%=      5-min Rain = 0
KANS 211540Z 10008KT 14/08 A3033 RMK A01 T01440081  RH  068%=      5-min Rain = 0
KANS 211545Z 10009KT 15/08 A3033 RMK A01 T01460083  RH  068%=      5-min Rain = 0
KANS 211550Z 09008KT 15/08 A3033 RMK A01 T01470083  RH  067%=      5-min Rain = 0
KANS 211555Z 10007G12KT 15/09 A3033 RMK A01 T01540085  RH  065%=      5-min Rain = 0
KANS 211600Z 10009KT 15/09 A3033 RMK A01 T01530086  RH  066%=      5-min Rain = 0
KANS 211605Z 11010KT 15/09 A3032 RMK A01 T01520085  RH  066%=      5-min Rain = 0
KANS 211610Z 11009KT 15/09 A3032 RMK A01 T01540088  RH  067%=      5-min Rain = 0
KANS 211615Z 10010KT 16/09 A3032 RMK A01 T01570087  RH  065%=      5-min Rain = 0
KANS 211620Z 11010KT 15/09 A3032 RMK A01 T01540087  RH  066%=      5-min Rain = 0
KANS 211625Z 11011KT 16/09 A3031 RMK A01 T01550089  RH  067%=      5-min Rain = 0
KANS 211630Z 12010KT 15/09 A3031 RMK A01 T01500092  RH  071%=      5-min Rain = 0
KANS 211635Z 12010KT 15/10 A3031 RMK A01 T01520095  RH  071%=      5-min Rain = 0
KANS 211640Z 12009KT 15/10 A3031 RMK A01 T01500097  RH  073%=      5-min Rain = 0
KANS 211645Z 13009KT 15/10 A3031 RMK A01 T01500101  RH  075%=      5-min Rain = 0
KANS 211650Z 13011KT 15/10 A3031 RMK A01 T01510102  RH  075%=      5-min Rain = 0
KANS 211655Z 13008G13KT 15/10 A303 RMK A01 T01520104  RH  075%=      5-min Rain = 0
KANS 211700Z 14008G13KT 15/11 A303 RMK A01 T01530106  RH  076%=      5-min Rain = 0
KANS 211705Z 14008KT 16/11 A303 RMK A01 T01560107  RH  075%=      5-min Rain = 0
KANS 211710Z 15010G15KT 16/11 A303 RMK A01 T01560109  RH  076%=      5-min Rain = 0
KANS 211715Z 15010KT 16/11 A303 RMK A01 T01560111  RH  077%=      5-min Rain = 0
KANS 211720Z 15009KT 16/11 A303 RMK A01 T01580111  RH  076%=      5-min Rain = 0
KANS 211725Z 15010KT 16/11 A303 RMK A01 T01600112  RH  076%=      5-min Rain = 0
KANS 211730Z 16011G17KT 16/11 A303 RMK A01 T01600112  RH  076%=      5-min Rain = 0
KANS 211735Z 17009G14KT 16/11 A303 RMK A01 T01610113  RH  076%=      5-min Rain = 0
KANS 211740Z 16011G16KT 16/11 A303 RMK A01 T01640113  RH  074%=      5-min Rain = 0
KANS 211745Z 16011KT 17/11 A303 RMK A01 T01680113  RH  073%=      5-min Rain = 0
KANS 211750Z 17009KT 17/11 A3029 RMK A01 T01690114  RH  073%=      5-min Rain = 0
KANS 211755Z 16008KT 17/12 A3029 RMK A01 T01740115  RH  071%=      5-min Rain = 0
KANS 211800Z 17008KT 18/12 A3029 RMK A01 T01750115  RH  070%=      5-min Rain = 0
KANS 211805Z 16011KT 18/12 A3028 RMK A01 T01770115  RH  069%=      5-min Rain = 0
KANS 211810Z 15010KT 18/12 A3028 RMK A01 T01810115  RH  068%=      5-min Rain = 0
KANS 211815Z 15009KT 18/12 A3027 RMK A01 T01840115  RH  067%=      5-min Rain = 0
KANS 211820Z 15010KT 19/12 A3027 RMK A01 T01860115  RH  066%=      5-min Rain = 0
KANS 211825Z 16008KT 19/11 A3027 RMK A01 T01890114  RH  064%=      5-min Rain = 0
KANS 211830Z 17011G20KT 20/11 A3027 RMK A01 T01970112  RH  060%=      5-min Rain = 0
KANS 211835Z 13011KT 19/11 A3026 RMK A01 T01930112  RH  061%=      5-min Rain = 0
KANS 211840Z 14009KT 20/12 A3026 RMK A01 T01970115  RH  061%=      5-min Rain = 0
KANS 211845Z 15011KT 20/11 A3025 RMK A01 T02030112  RH  058%=      5-min Rain = 0
KANS 211850Z 14013KT 20/11 A3024 RMK A01 T01990112  RH  059%=      5-min Rain = 0
KANS 211855Z 15013KT 21/11 A3024 RMK A01 T02060112  RH  057%=      5-min Rain = 0
KANS 211900Z 16010G15KT 21/11 A3024 RMK A01 T02060111  RH  057%=      5-min Rain = 0
KANS 211905Z 16012G19KT 21/11 A3023 RMK A01 T02090110  RH  055%=      5-min Rain = 0
KANS 211910Z 16010KT 21/11 A3023 RMK A01 T02100112  RH  055%=      5-min Rain = 0
KANS 211915Z 14011G16KT 21/11 A3023 RMK A01 T02120110  RH  054%=      5-min Rain = 0
KANS 211920Z 16012G18KT 21/11 A3023 RMK A01 T02130109  RH  053%=      5-min Rain = 0
KANS 211925Z 15011G17KT 22/11 A3023 RMK A01 T02150107  RH  052%=      5-min Rain = 0
KANS 211930Z 14009G19KT 21/11 A3022 RMK A01 T02140109  RH  053%=      5-min Rain = 0
KANS 211935Z 16011G16KT 22/11 A3022 RMK A01 T02150109  RH  053%=      5-min Rain = 0
KANS 211940Z 14010G15KT 21/11 A3022 RMK A01 T02140107  RH  052%=      5-min Rain = 0
KANS 211945Z 16010G15KT 22/11 A3022 RMK A01 T02180107  RH  051%=      5-min Rain = 0
KANS 211950Z 15012KT 22/11 A3021 RMK A01 T02180107  RH  051%=      5-min Rain = 0
KANS 211955Z 13010KT 22/11 A3021 RMK A01 T02180106  RH  051%=      5-min Rain = 0
KANS 212000Z 14008KT 22/11 A3021 RMK A01 T02220109  RH  050%=      5-min Rain = 0
KANS 212005Z 15011G16KT 22/11 A3021 RMK A01 T02240108  RH  050%=      5-min Rain = 0
KANS 212010Z 16008KT 22/11 A302 RMK A01 T02210108  RH  050%=      5-min Rain = 0
KANS 212015Z 15010G15KT 22/11 A302 RMK A01 T02240105  RH  049%=      5-min Rain = 0
KANS 212020Z 14010KT 22/10 A302 RMK A01 T02220104  RH  049%=      5-min Rain = 0
KANS 212025Z 14008G14KT 22/11 A302 RMK A01 T02230105  RH  049%=      5-min Rain = 0
KANS 212030Z 15010G15KT 22/10 A302 RMK A01 T02240102  RH  047%=      5-min Rain = 0
KANS 212035Z 15009KT 22/10 A302 RMK A01 T02230101  RH  047%=      5-min Rain = 0
KANS 212040Z 15008G14KT 23/10 A302 RMK A01 T02250103  RH  047%=      5-min Rain = 0
KANS 212045Z 14008G14KT 22/10 A302 RMK A01 T02240103  RH  048%=      5-min Rain = 0
KANS 212050Z 15007G12KT 23/11 A3019 RMK A01 T02260105  RH  048%=      5-min Rain = 0
KANS 212055Z 13010KT 22/10 A3019 RMK A01 T02240103  RH  048%=      5-min Rain = 0
KANS 212100Z 14009KT 22/10 A3019 RMK A01 T02240100  RH  047%=      5-min Rain = 0
KANS 212105Z 14007KT 23/10 A3019 RMK A01 T02250103  RH  048%=      5-min Rain = 0
KANS 212110Z 13010G15KT 23/10 A3019 RMK A01 T02250104  RH  048%=      5-min Rain = 0
KANS 212115Z 13009KT 22/10 A3019 RMK A01 T02220101  RH  048%=      5-min Rain = 0
KANS 212120Z 14008KT 22/10 A3019 RMK A01 T02240102  RH  047%=      5-min Rain = 0
KANS 212125Z 13008KT 23/10 A3018 RMK A01 T02250103  RH  048%=      5-min Rain = 0
KANS 212130Z 13012G17KT 23/10 A3018 RMK A01 T02250104  RH  048%=      5-min Rain = 0
KANS 212135Z 14009KT 22/10 A3018 RMK A01 T02220103  RH  048%=      5-min Rain = 0
KANS 212140Z 15009KT 23/10 A3018 RMK A01 T02260104  RH  048%=      5-min Rain = 0
KANS 212145Z 15009G14KT 23/11 A3018 RMK A01 T02250105  RH  048%=      5-min Rain = 0
KANS 212150Z 15010KT 23/10 A3017 RMK A01 T02250104  RH  048%=      5-min Rain = 0
KANS 212155Z 13011KT 22/11 A3017 RMK A01 T02240105  RH  048%=      5-min Rain = 0
KANS 212200Z 13010G15KT 22/11 A3017 RMK A01 T02210105  RH  049%=      5-min Rain = 0
KANS 212205Z 14010KT 22/10 A3017 RMK A01 T02220104  RH  049%=      5-min Rain = 0
KANS 212210Z 14009G14KT 22/11 A3017 RMK A01 T02220105  RH  049%=      5-min Rain = 0
KANS 212215Z 13010KT 22/11 A3017 RMK A01 T02220105  RH  049%=      5-min Rain = 0
KANS 212220Z 13009KT 22/11 A3017 RMK A01 T02220105  RH  049%=      5-min Rain = 0
KANS 212225Z 13011KT 22/11 A3017 RMK A01 T02210105  RH  050%=      5-min Rain = 0
KANS 212230Z 14009G14KT 22/11 A3017 RMK A01 T02200106  RH  050%=      5-min Rain = 0
KANS 212235Z 13009KT 22/11 A3017 RMK A01 T02200105  RH  050%=      5-min Rain = 0
KANS 212240Z 14009KT 22/11 A3017 RMK A01 T02200105  RH  050%=      5-min Rain = 0
KANS 212245Z 14008G15KT 22/11 A3016 RMK A01 T02190105  RH  050%=      5-min Rain = 0
KANS 212250Z 15010KT 22/11 A3016 RMK A01 T02180105  RH  050%=      5-min Rain = 0
KANS 212255Z 14010KT 22/11 A3016 RMK A01 T02150106  RH  051%=      5-min Rain = 0
KANS 212300Z 14008KT 21/11 A3016 RMK A01 T02140105  RH  051%=      5-min Rain = 0
KANS 212305Z 14009G14KT 21/11 A3016 RMK A01 T02120105  RH  052%=      5-min Rain = 0
KANS 212310Z 14009KT 21/11 A3016 RMK A01 T02100106  RH  053%=      5-min Rain = 0
KANS 212315Z 13010G15KT 21/11 A3016 RMK A01 T02080106  RH  053%=      5-min Rain = 0
KANS 212320Z 14008G13KT 21/11 A3016 RMK A01 T02060105  RH  054%=      5-min Rain = 0
KANS 212325Z 14008KT 20/10 A3016 RMK A01 T02040104  RH  054%=      5-min Rain = 0
KANS 212330Z 14008KT 20/10 A3016 RMK A01 T02030103  RH  054%=      5-min Rain = 0
KANS 212335Z 14007KT 20/10 A3016 RMK A01 T02000102  RH  055%=      5-min Rain = 0
KANS 212340Z 14007KT 20/10 A3016 RMK A01 T01980102  RH  056%=      5-min Rain = 0
KANS 212345Z 14006KT 20/10 A3016 RMK A01 T01960102  RH  056%=      5-min Rain = 0
KANS 212350Z 14005KT 19/10 A3016 RMK A01 T01940101  RH  057%=      5-min Rain = 0
KANS 212355Z 13005KT 19/10 A3016 RMK A01 T01910101  RH  058%=      5-min Rain = 0
KANS 220000Z 14006KT 19/10 A3016 RMK A01 T01880100  RH  058%=      5-min Rain = 0
KANS 220005Z 14006KT 19/10 A3016 RMK A01 T01850099  RH  059%=      5-min Rain = 0
KANS 220010Z 15006KT 18/10 A3016 RMK A01 T01840099  RH  060%=      5-min Rain = 0
KANS 220015Z 15006KT 18/10 A3016 RMK A01 T01820099  RH  060%=      5-min Rain = 0
KANS 220020Z 14005KT 18/10 A3016 RMK A01 T01800098  RH  061%=      5-min Rain = 0
KANS 220025Z 14004KT 18/10 A3016 RMK A01 T01780098  RH  061%=      5-min Rain = 0
KANS 220030Z 14004KT 18/10 A3016 RMK A01 T01760097  RH  062%=      5-min Rain = 0
KANS 220035Z 13004KT 17/10 A3016 RMK A01 T01740097  RH  063%=      5-min Rain = 0
KANS 220040Z 13004KT 17/10 A3016 RMK A01 T01710096  RH  063%=      5-min Rain = 0
KANS 220045Z 13005KT 17/10 A3016 RMK A01 T01700096  RH  063%=      5-min Rain = 0
KANS 220050Z 12005KT 17/10 A3016 RMK A01 T01690096  RH  064%=      5-min Rain = 0
KANS 220055Z 12004KT 17/10 A3016 RMK A01 T01670095  RH  064%=      5-min Rain = 0
KANS 220100Z 12004KT 17/09 A3016 RMK A01 T01650094  RH  065%=      5-min Rain = 0
KANS 220105Z 11004KT 16/09 A3016 RMK A01 T01630093  RH  065%=      5-min Rain = 0
KANS 220110Z 12004KT 16/09 A3016 RMK A01 T01610093  RH  066%=      5-min Rain = 0
KANS 220115Z 11004KT 16/09 A3017 RMK A01 T01600093  RH  066%=      5-min Rain = 0
KANS 220120Z 11005KT 16/09 A3017 RMK A01 T01590093  RH  067%=      5-min Rain = 0
KANS 220125Z 12005KT 16/09 A3017 RMK A01 T01590093  RH  067%=      5-min Rain = 0
KANS 220130Z 11005KT 16/09 A3017 RMK A01 T01580093  RH  067%=      5-min Rain = 0
KANS 220135Z 12006KT 16/09 A3017 RMK A01 T01570092  RH  067%=      5-min Rain = 0
KANS 220140Z 13006KT 16/09 A3017 RMK A01 T01560093  RH  068%=      5-min Rain = 0
KANS 220145Z 13007KT 16/10 A3017 RMK A01 T01570095  RH  069%=      5-min Rain = 0
KANS 220150Z 13006KT 16/10 A3017 RMK A01 T01570096  RH  069%=      5-min Rain = 0
KANS 220155Z 13005KT 16/10 A3017 RMK A01 T01560095  RH  069%=      5-min Rain = 0
KANS 220200Z 14005KT 15/09 A3017 RMK A01 T01540094  RH  070%=      5-min Rain = 0
KANS 220205Z 14006KT 15/09 A3017 RMK A01 T01520094  RH  070%=      5-min Rain = 0
KANS 220210Z 13006KT 15/09 A3017 RMK A01 T01510094  RH  071%=      5-min Rain = 0
KANS 220215Z 14006KT 15/10 A3018 RMK A01 T01510095  RH  071%=      5-min Rain = 0
KANS 220220Z 14006KT 15/10 A3018 RMK A01 T01500096  RH  072%=      5-min Rain = 0
KANS 220225Z 13005KT 15/10 A3018 RMK A01 T01500096  RH  073%=      5-min Rain = 0
KANS 220230Z 13005KT 15/10 A3018 RMK A01 T01480096  RH  073%=      5-min Rain = 0
KANS 220235Z 13005KT 15/10 A3019 RMK A01 T01460095  RH  074%=      5-min Rain = 0
KANS 220240Z 13005KT 14/10 A3019 RMK A01 T01440095  RH  075%=      5-min Rain = 0
KANS 220245Z 13005KT 14/09 A3019 RMK A01 T01420094  RH  075%=      5-min Rain = 0
KANS 220250Z 13005KT 14/10 A3019 RMK A01 T01410095  RH  076%=      5-min Rain = 0
KANS 220255Z 13005KT 14/10 A3019 RMK A01 T01410095  RH  076%=      5-min Rain = 0
KANS 220300Z 14005KT 14/10 A3019 RMK A01 T01400095  RH  077%=      5-min Rain = 0
KANS 220305Z 14005KT 14/10 A3019 RMK A01 T01390095  RH  077%=      5-min Rain = 0
KANS 220310Z 14004KT 14/10 A3019 RMK A01 T01370095  RH  078%=      5-min Rain = 0
KANS 220315Z 14004KT 14/10 A302 RMK A01 T01370095  RH  078%=      5-min Rain = 0
KANS 220320Z 14004KT 14/10 A302 RMK A01 T01360095  RH  079%=      5-min Rain = 0
KANS 220325Z 14004KT 14/10 A302 RMK A01 T01350095  RH  079%=      5-min Rain = 0
KANS 220330Z 14003KT 13/10 A302 RMK A01 T01340095  RH  080%=      5-min Rain = 0
KANS 220335Z 13003KT 13/10 A302 RMK A01 T01330095  RH  080%=      5-min Rain = 0
KANS 220340Z 12004KT 13/10 A302 RMK A01 T01320095  RH  080%=      5-min Rain = 0
KANS 220345Z 12004KT 13/10 A302 RMK A01 T01330095  RH  081%=      5-min Rain = 0
KANS 220350Z 13004KT 13/10 A302 RMK A01 T01330096  RH  081%=      5-min Rain = 0
KANS 220355Z 13005KT 13/10 A3019 RMK A01 T01320095  RH  081%=      5-min Rain = 0
KANS 220400Z 12004KT 13/10 A3019 RMK A01 T01300095  RH  082%=      5-min Rain = 0
KANS 220405Z 11004KT 13/10 A3019 RMK A01 T01300095  RH  082%=      5-min Rain = 0
KANS 220410Z 10003KT 13/10 A302 RMK A01 T01290095  RH  082%=      5-min Rain = 0
KANS 220415Z 10003KT 13/10 A302 RMK A01 T01290095  RH  083%=      5-min Rain = 0
KANS 220420Z 10004KT 13/10 A302 RMK A01 T01280095  RH  083%=      5-min Rain = 0
KANS 220425Z 11004KT 13/10 A302 RMK A01 T01280096  RH  083%=      5-min Rain = 0
KANS 220430Z 11004KT 13/10 A302 RMK A01 T01280095  RH  083%=      5-min Rain = 0
KANS 220435Z 11004KT 13/10 A302 RMK A01 T01280096  RH  083%=      5-min Rain = 0
KANS 220440Z 11004KT 13/10 A302 RMK A01 T01290096  RH  083%=      5-min Rain = 0
KANS 220445Z 11004KT 13/10 A302 RMK A01 T01290096  RH  083%=      5-min Rain = 0
KANS 220450Z 11004KT 13/10 A302 RMK A01 T01290097  RH  083%=      5-min Rain = 0
KANS 220455Z 11004KT 13/10 A302 RMK A01 T01290097  RH  083%=      5-min Rain = 0
KANS 220500Z 11004KT 13/10 A302 RMK A01 T01290097  RH  083%=      5-min Rain = 0
KANS 220505Z 10004KT 13/10 A302 RMK A01 T01290096  RH  083%=      5-min Rain = 0
KANS 220510Z 11004KT 13/10 A302 RMK A01 T01290096  RH  083%=      5-min Rain = 0
KANS 220515Z 11004KT 13/10 A302 RMK A01 T01290096  RH  083%=      5-min Rain = 0
KANS 220520Z 11004KT 13/10 A302 RMK A01 T01280096  RH  083%=      5-min Rain = 0
KANS 220525Z 12005KT 13/10 A3019 RMK A01 T01270095  RH  083%=      5-min Rain = 0
KANS 220530Z 12005KT 13/09 A3019 RMK A01 T01260094  RH  084%=      5-min Rain = 0
KANS 220535Z 13005KT 13/10 A3019 RMK A01 T01260095  RH  084%=      5-min Rain = 0
KANS 220540Z 13005KT 13/10 A3019 RMK A01 T01250095  RH  085%=      5-min Rain = 0
KANS 220545Z 13005KT 12/09 A3018 RMK A01 T01240094  RH  085%=      5-min Rain = 0
KANS 220550Z 12005KT 12/10 A3018 RMK A01 T01240095  RH  085%=      5-min Rain = 0
KANS 220555Z 11004KT 12/09 A3018 RMK A01 T01240094  RH  085%=      5-min Rain = 0

Page generated in 0.0154 seconds.